Time;durP1;ratioP1;P1;durP2;ratioP2;P2;SDS_P1;SDS_P2;PMS_P1;PMS_P2;Temp;Humidity;BMP_temperature;BMP_pressure;BME280_temperature;BME280_humidity;BME280_pressure;Samples;Min_cycle;Max_cycle;Signal;HPM_P1;HPM_P2
2024/04/08 00:00:01;;;;;;;;;;;;;;;;;;1866878;29;7062;-64
2024/04/08 00:00:57;;;;;;;;;;;;;;;;;;1867251;29;7014;-65
2024/04/08 00:01:54;;;;;;;;;;;;;;;;;;1874892;28;7137;-65
2024/04/08 00:02:50;;;;;;;;;;;;;;;;;;1873063;28;7108;-65
2024/04/08 00:03:46;;;;;;;;;;;;;;;;;;1871317;28;7345;-65
2024/04/08 00:04:43;;;;;;;;;;;;;;;;;;1869248;28;7017;-65
2024/04/08 00:05:39;;;;;;;;;;;;;;;;;;1867724;29;7026;-65
2024/04/08 00:06:35;;;;;;;;;;;;;;;;;;1866866;29;7100;-64
2024/04/08 00:07:32;;;;;;;;;;;;;;;;;;1866654;29;7715;-64
2024/04/08 00:08:28;;;;;;;;;;;;;;;;;;1874766;28;7010;-65
2024/04/08 00:09:24;;;;;;;;;;;;;;;;;;1863506;29;7140;-65
2024/04/08 00:10:21;;;;;;;;;;;;;;;;;;1867335;29;7104;-64
2024/04/08 00:11:18;;;;;;;;;;;;;;;;;;1867225;29;7013;-65
2024/04/08 00:12:14;;;;;;;;;;;;;;;;;;1862152;29;8169;-65
2024/04/08 00:13:10;;;;;;;;;;;;;;;;;;1873357;28;7100;-65
2024/04/08 00:14:07;;;;;;;;;;;;;;;;;;1872853;28;7014;-65
2024/04/08 00:15:03;;;;;;;;;;;;;;;;;;1875717;28;7038;-65
2024/04/08 00:15:59;;;;;;;;;;;;;;;;;;1874042;28;7025;-64
2024/04/08 00:16:56;;;;;;;;;;;;;;;;;;1871862;28;7092;-65
2024/04/08 00:17:52;;;;;;;;;;;;;;;;;;1870984;28;7044;-64
2024/04/08 00:18:49;;;;;;;;;;;;;;;;;;1864271;29;7973;-65
2024/04/08 00:19:46;;;;;;;;;;;;;;;;;;1868348;29;7050;-65
2024/04/08 00:20:42;;;;;;;;;;;;;;;;;;1875559;28;7009;-65
2024/04/08 00:21:38;;;;;;;;;;;;;;;;;;1873960;28;8037;-65
2024/04/08 00:22:35;;;;;;;;;;;;;;;;;;1867271;29;7046;-65
2024/04/08 00:23:31;;;;;;;;;;;;;;;;;;1875034;28;7097;-65
2024/04/08 00:24:28;;;;;;;;;;;;;;;;;;1877607;28;7046;-65
2024/04/08 00:25:24;;;;;;;;;;;;;;;;;;1872841;28;7014;-65
2024/04/08 00:26:21;;;;;;;;;;;;;;;;;;1868612;29;7042;-64
2024/04/08 00:27:17;;;;;;;;;;;;;;;;;;1874749;28;7013;-65
2024/04/08 00:28:13;;;;;;;;;;;;;;;;;;1874270;28;7124;-66
2024/04/08 00:29:10;;;;;;;;;;;;;;;;;;1872733;28;7100;-65
2024/04/08 00:30:06;;;;;;;;;;;;;;;;;;1864191;29;7189;-65
2024/04/08 00:31:03;;;;;;;;;;;;;;;;;;1867289;29;8097;-65
2024/04/08 00:32:00;;;;;;;;;;;;;;;;;;1867642;29;7154;-65
2024/04/08 00:32:56;;;;;;;;;;;;;;;;;;1874948;28;7096;-65
2024/04/08 00:33:53;;;;;;;;;;;;;;;;;;1873226;28;7030;-65
2024/04/08 00:34:49;;;;;;;;;;;;;;;;;;1868564;29;8113;-65
2024/04/08 00:35:45;;;;;;;;;;;;;;;;;;1866546;29;7137;-65
2024/04/08 00:36:42;;;;;;;;;;;;;;;;;;1868764;29;7018;-64
2024/04/08 00:37:38;;;;;;;;;;;;;;;;;;1875207;28;7085;-65
2024/04/08 00:38:35;;;;;;;;;;;;;;;;;;1881560;28;8108;-65
2024/04/08 00:39:32;;;;;;;;;;;;;;;;;;1872826;28;8033;-65
2024/04/08 00:40:36;;;;;;;;;;;;;;;;;;1876907;28;7017;-64
2024/04/08 00:41:33;;;;;;;;;;;;;;;;;;1875019;28;7037;-65
2024/04/08 00:42:30;;;;;;;;;;;;;;;;;;1867525;29;7029;-65
2024/04/08 00:43:26;;;;;;;;;;;;;;;;;;1865537;29;7014;-65
2024/04/08 00:44:22;;;;;;;;;;;;;;;;;;1867956;29;7013;-65
2024/04/08 00:45:19;;;;;;;;;;;;;;;;;;1867259;29;7113;-65
2024/04/08 00:46:20;;;;;;;;;;;;;;;;;;1866401;29;7357;-65
2024/04/08 00:47:17;;;;;;;;;;;;;;;;;;1868745;29;7050;-64
2024/04/08 00:48:14;;;;;;;;;;;;;;;;;;1868993;29;7161;-65
2024/04/08 00:49:10;;;;;;;;;;;;;;;;;;1867202;29;7046;-65
2024/04/08 00:50:07;;;;;;;;;;;;;;;;;;1873245;28;7969;-65
2024/04/08 00:51:04;;;;;;;;;;;;;;;;;;1874067;28;7338;-65
2024/04/08 00:52:01;;;;;;;;;;;;;;;;;;1863751;29;7050;-65
2024/04/08 00:52:57;;;;;;;;;;;;;;;;;;1865323;29;7014;-65
2024/04/08 00:53:54;;;;;;;;;;;;;;;;;;1867874;29;8053;-64
2024/04/08 00:54:51;;;;;;;;;;;;;;;;;;1865454;29;7082;-65
2024/04/08 00:55:49;;;;;;;;;;;;;;;;;;1866820;29;7013;-65
2024/04/08 00:56:46;;;;;;;;;;;;;;;;;;1873364;28;7017;-65
2024/04/08 00:57:45;;;;;;;;;;;;;;;;;;1873385;28;7096;-65
2024/04/08 00:58:42;;;;;;;;;;;;;;;;;;1869654;28;8911;-65
2024/04/08 00:59:39;;;;;;;;;;;;;;;;;;1872723;28;7177;-65
2024/04/08 01:00:35;;;;;;;;;;;;;;;;;;1872120;28;7042;-65
2024/04/08 01:01:32;;;;;;;;;;;;;;;;;;1870689;28;7029;-65
2024/04/08 01:02:29;;;;;;;;;;;;;;;;;;1874288;28;7123;-65
2024/04/08 01:03:26;;;;;;;;;;;;;;;;;;1872381;28;7335;-65
2024/04/08 01:04:22;;;;;;;;;;;;;;;;;;1868764;28;7128;-65
2024/04/08 01:05:19;;;;;;;;;;;;;;;;;;1866111;29;7010;-65
2024/04/08 01:06:15;;;;;;;;;;;;;;;;;;1865555;29;7030;-64
2024/04/08 01:07:11;;;;;;;;;;;;;;;;;;1873643;28;7149;-64
2024/04/08 01:08:08;;;;;;;;;;;;;;;;;;1873100;28;7100;-65
2024/04/08 01:09:04;;;;;;;;;;;;;;;;;;1874816;28;7100;-65
2024/04/08 01:10:00;;;;;;;;;;;;;;;;;;1861342;29;7050;-65
2024/04/08 01:10:57;;;;;;;;;;;;;;;;;;1867340;28;7118;-64
2024/04/08 01:11:54;;;;;;;;;;;;;;;;;;1875895;28;8026;-64
2024/04/08 01:12:50;;;;;;;;;;;;;;;;;;1866764;29;7116;-65
2024/04/08 01:13:46;;;;;;;;;;;;;;;;;;1873695;28;7049;-65
2024/04/08 01:14:43;;;;;;;;;;;;;;;;;;1872101;28;7014;-65
2024/04/08 01:15:40;;;;;;;;;;;;;;;;;;1865500;29;7009;-65
2024/04/08 01:16:36;;;;;;;;;;;;;;;;;;1869398;28;7100;-65
2024/04/08 01:17:32;;;;;;;;;;;;;;;;;;1867853;29;7135;-64
2024/04/08 01:18:29;;;;;;;;;;;;;;;;;;1866318;29;7049;-65
2024/04/08 01:19:25;;;;;;;;;;;;;;;;;;1868859;28;7100;-65
2024/04/08 01:20:21;;;;;;;;;;;;;;;;;;1864665;29;7014;-65
2024/04/08 01:21:18;;;;;;;;;;;;;;;;;;1865776;29;7378;-65
2024/04/08 01:22:14;;;;;;;;;;;;;;;;;;1864231;29;7053;-65
2024/04/08 01:23:13;;;;;;;;;;;;;;;;;;1864900;29;7013;-65
2024/04/08 01:24:10;;;;;;;;;;;;;;;;;;1866138;29;7096;-65
2024/04/08 01:25:07;;;;;;;;;;;;;;;;;;1868626;28;7259;-64
2024/04/08 01:26:03;;;;;;;;;;;;;;;;;;1875920;28;7396;-65
2024/04/08 01:27:00;;;;;;;;;;;;;;;;;;1872438;28;7138;-64
2024/04/08 01:27:56;;;;;;;;;;;;;;;;;;1879980;28;8032;-65
2024/04/08 01:28:53;;;;;;;;;;;;;;;;;;1870379;28;7017;-66
2024/04/08 01:29:49;;;;;;;;;;;;;;;;;;1868966;28;8037;-65
2024/04/08 01:30:46;;;;;;;;;;;;;;;;;;1874392;28;8045;-65
2024/04/08 01:31:43;;;;;;;;;;;;;;;;;;1873846;28;7101;-65
2024/04/08 01:32:39;;;;;;;;;;;;;;;;;;1867170;29;7125;-65
2024/04/08 01:33:37;;;;;;;;;;;;;;;;;;1861841;29;7385;-64
2024/04/08 01:34:33;;;;;;;;;;;;;;;;;;1863149;29;7116;-65
2024/04/08 01:35:30;;;;;;;;;;;;;;;;;;1864260;29;7013;-65
2024/04/08 01:36:26;;;;;;;;;;;;;;;;;;1860242;29;7117;-65
2024/04/08 01:37:22;;;;;;;;;;;;;;;;;;1867537;28;7132;-64
2024/04/08 01:38:19;;;;;;;;;;;;;;;;;;1863467;29;7014;-65
2024/04/08 01:39:16;;;;;;;;;;;;;;;;;;1865967;29;7140;-65
2024/04/08 01:40:12;;;;;;;;;;;;;;;;;;1862340;28;8014;-65
2024/04/08 01:41:09;;;;;;;;;;;;;;;;;;1865324;29;7101;-65
2024/04/08 01:42:05;;;;;;;;;;;;;;;;;;1861562;29;8037;-65
2024/04/08 01:43:01;;;;;;;;;;;;;;;;;;1869751;28;7342;-65
2024/04/08 01:43:58;;;;;;;;;;;;;;;;;;1868817;28;7046;-65
2024/04/08 01:44:54;;;;;;;;;;;;;;;;;;1861019;29;7010;-65
2024/04/08 01:45:52;;;;;;;;;;;;;;;;;;1865996;29;7138;-65
2024/04/08 01:46:48;;;;;;;;;;;;;;;;;;1866725;29;7014;-65
2024/04/08 01:47:44;;;;;;;;;;;;;;;;;;1869269;28;7082;-65
2024/04/08 01:48:41;;;;;;;;;;;;;;;;;;1869185;28;7009;-65
2024/04/08 01:49:37;;;;;;;;;;;;;;;;;;1863004;29;7013;-65
2024/04/08 01:50:34;;;;;;;;;;;;;;;;;;1864389;29;7140;-64
2024/04/08 01:51:30;;;;;;;;;;;;;;;;;;1863530;29;7014;-65
2024/04/08 01:52:26;;;;;;;;;;;;;;;;;;1863919;29;7017;-65
2024/04/08 01:53:23;;;;;;;;;;;;;;;;;;1869092;28;7017;-65
2024/04/08 01:54:22;;;;;;;;;;;;;;;;;;1878024;28;7121;-64
2024/04/08 01:55:18;;;;;;;;;;;;;;;;;;1881080;28;7057;-65
2024/04/08 01:56:15;;;;;;;;;;;;;;;;;;1864626;28;7117;-65
2024/04/08 01:57:11;;;;;;;;;;;;;;;;;;1866525;29;7196;-65
2024/04/08 01:58:07;;;;;;;;;;;;;;;;;;1866515;29;7200;-65
2024/04/08 01:59:04;;;;;;;;;;;;;;;;;;1865977;29;7354;-65
2024/04/08 02:00:00;;;;;;;;;;;;;;;;;;1864655;29;8088;-65
2024/04/08 02:00:56;;;;;;;;;;;;;;;;;;1863296;29;7122;-65
2024/04/08 02:01:53;;;;;;;;;;;;;;;;;;1865537;29;7014;-64
2024/04/08 02:02:49;;;;;;;;;;;;;;;;;;1865755;29;8121;-65
2024/04/08 02:03:45;;;;;;;;;;;;;;;;;;1869266;28;7100;-65
2024/04/08 02:04:42;;;;;;;;;;;;;;;;;;1870197;28;7093;-64
2024/04/08 02:05:38;;;;;;;;;;;;;;;;;;1864012;29;7125;-65
2024/04/08 02:06:34;;;;;;;;;;;;;;;;;;1866167;29;7042;-65
2024/04/08 02:07:31;;;;;;;;;;;;;;;;;;1863539;29;7018;-65
2024/04/08 02:08:27;;;;;;;;;;;;;;;;;;1866754;28;7014;-65
2024/04/08 02:09:23;;;;;;;;;;;;;;;;;;1871961;28;7014;-65
2024/04/08 02:10:20;;;;;;;;;;;;;;;;;;1861829;29;7014;-65
2024/04/08 02:11:16;;;;;;;;;;;;;;;;;;1865989;29;7017;-65
2024/04/08 02:12:12;;;;;;;;;;;;;;;;;;1863516;29;7010;-65
2024/04/08 02:13:09;;;;;;;;;;;;;;;;;;1863238;29;7109;-64
2024/04/08 02:14:05;;;;;;;;;;;;;;;;;;1864560;29;7181;-64
2024/04/08 02:15:01;;;;;;;;;;;;;;;;;;1858503;29;8078;-65
2024/04/08 02:15:58;;;;;;;;;;;;;;;;;;1858279;29;7017;-65
2024/04/08 02:16:54;;;;;;;;;;;;;;;;;;1863962;29;7030;-64
2024/04/08 02:17:51;;;;;;;;;;;;;;;;;;1868185;28;7014;-64
2024/04/08 02:18:50;;;;;;;;;;;;;;;;;;1870495;28;8045;-65
2024/04/08 02:19:46;;;;;;;;;;;;;;;;;;1869038;28;7017;-65
2024/04/08 02:20:43;;;;;;;;;;;;;;;;;;1863543;28;7017;-65
2024/04/08 02:21:39;;;;;;;;;;;;;;;;;;1864060;29;7018;-65
2024/04/08 02:22:35;;;;;;;;;;;;;;;;;;1861570;29;8048;-64
2024/04/08 02:23:32;;;;;;;;;;;;;;;;;;1864242;29;7130;-65
2024/04/08 02:24:28;;;;;;;;;;;;;;;;;;1871076;28;7013;-64
2024/04/08 02:25:24;;;;;;;;;;;;;;;;;;1874148;28;7306;-65
2024/04/08 02:26:21;;;;;;;;;;;;;;;;;;1872591;28;7097;-65
2024/04/08 02:27:17;;;;;;;;;;;;;;;;;;1862814;29;7105;-64
2024/04/08 02:28:13;;;;;;;;;;;;;;;;;;1872382;28;7307;-64
2024/04/08 02:29:10;;;;;;;;;;;;;;;;;;1872753;28;7269;-65
2024/04/08 02:30:06;;;;;;;;;;;;;;;;;;1861981;29;8025;-65
2024/04/08 02:31:03;;;;;;;;;;;;;;;;;;1866273;29;7133;-65
2024/04/08 02:31:59;;;;;;;;;;;;;;;;;;1872974;28;7096;-64
2024/04/08 02:32:56;;;;;;;;;;;;;;;;;;1871703;28;7041;-64
2024/04/08 02:33:52;;;;;;;;;;;;;;;;;;1866180;29;7130;-64
2024/04/08 02:34:48;;;;;;;;;;;;;;;;;;1865648;29;7014;-64
2024/04/08 02:35:45;;;;;;;;;;;;;;;;;;1862464;29;7128;-65
2024/04/08 02:36:41;;;;;;;;;;;;;;;;;;1859008;29;7037;-65
2024/04/08 02:37:37;;;;;;;;;;;;;;;;;;1865293;29;7117;-65
2024/04/08 02:38:34;;;;;;;;;;;;;;;;;;1872663;28;7018;-65
2024/04/08 02:39:30;;;;;;;;;;;;;;;;;;1872235;28;7034;-64
2024/04/08 02:40:27;;;;;;;;;;;;;;;;;;1864010;29;7056;-65
2024/04/08 02:41:23;;;;;;;;;;;;;;;;;;1863050;29;7013;-64
2024/04/08 02:42:19;;;;;;;;;;;;;;;;;;1869058;28;8053;-65
2024/04/08 02:43:16;;;;;;;;;;;;;;;;;;1866074;29;7099;-64
2024/04/08 02:44:12;;;;;;;;;;;;;;;;;;1865014;29;7014;-64
2024/04/08 02:45:08;;;;;;;;;;;;;;;;;;1862322;29;7013;-65
2024/04/08 02:46:05;;;;;;;;;;;;;;;;;;1862364;29;7152;-65
2024/04/08 02:47:01;;;;;;;;;;;;;;;;;;1858245;29;7017;-65
2024/04/08 02:47:58;;;;;;;;;;;;;;;;;;1862972;29;7017;-65
2024/04/08 02:48:54;;;;;;;;;;;;;;;;;;1873113;28;7014;-65
2024/04/08 02:49:50;;;;;;;;;;;;;;;;;;1862906;29;7018;-65
2024/04/08 02:50:46;;;;;;;;;;;;;;;;;;1865066;29;8117;-65
2024/04/08 02:51:43;;;;;;;;;;;;;;;;;;1869785;28;7051;-65
2024/04/08 02:52:39;;;;;;;;;;;;;;;;;;1864489;29;7085;-65
2024/04/08 02:53:36;;;;;;;;;;;;;;;;;;1862303;29;7078;-65
2024/04/08 02:54:32;;;;;;;;;;;;;;;;;;1873927;28;7096;-65
2024/04/08 02:55:29;;;;;;;;;;;;;;;;;;1871752;28;7081;-65
2024/04/08 02:56:25;;;;;;;;;;;;;;;;;;1860761;29;7046;-65
2024/04/08 02:57:21;;;;;;;;;;;;;;;;;;1862875;29;8009;-65
2024/04/08 02:58:18;;;;;;;;;;;;;;;;;;1866076;29;7107;-64
2024/04/08 02:59:15;;;;;;;;;;;;;;;;;;1860566;29;7100;-65
2024/04/08 03:00:12;;;;;;;;;;;;;;;;;;1863404;29;7054;-64
2024/04/08 03:01:09;;;;;;;;;;;;;;;;;;1861112;29;8106;-65
2024/04/08 03:02:05;;;;;;;;;;;;;;;;;;1861240;29;7010;-65
2024/04/08 03:03:02;;;;;;;;;;;;;;;;;;1860855;29;7134;-65
2024/04/08 03:03:58;;;;;;;;;;;;;;;;;;1858370;29;7010;-64
2024/04/08 03:04:54;;;;;;;;;;;;;;;;;;1863396;29;7082;-65
2024/04/08 03:05:51;;;;;;;;;;;;;;;;;;1867756;28;7033;-64
2024/04/08 03:06:47;;;;;;;;;;;;;;;;;;1872745;28;7017;-65
2024/04/08 03:07:43;;;;;;;;;;;;;;;;;;1872188;28;7042;-64
2024/04/08 03:08:40;;;;;;;;;;;;;;;;;;1862190;29;7125;-65
2024/04/08 03:09:37;;;;;;;;;;;;;;;;;;1864790;29;7161;-65
2024/04/08 03:10:33;;;;;;;;;;;;;;;;;;1865468;29;7124;-64
2024/04/08 03:11:29;;;;;;;;;;;;;;;;;;1863561;29;7105;-64
2024/04/08 03:12:26;;;;;;;;;;;;;;;;;;1866695;29;7328;-64
2024/04/08 03:13:22;;;;;;;;;;;;;;;;;;1864405;29;7124;-64
2024/04/08 03:14:18;;;;;;;;;;;;;;;;;;1866138;29;7034;-64
2024/04/08 03:15:15;;;;;;;;;;;;;;;;;;1871581;28;7018;-65
2024/04/08 03:16:11;;;;;;;;;;;;;;;;;;1871864;28;7014;-65
2024/04/08 03:17:07;;;;;;;;;;;;;;;;;;1866537;29;7046;-64
2024/04/08 03:18:06;;;;;;;;;;;;;;;;;;1863643;29;8985;-64
2024/04/08 03:19:03;;;;;;;;;;;;;;;;;;1866620;29;7014;-64
2024/04/08 03:19:59;;;;;;;;;;;;;;;;;;1871317;29;7014;-64
2024/04/08 03:21:00;;;;;;;;;;;;;;;;;;1864064;29;7017;-64
2024/04/08 03:21:56;;;;;;;;;;;;;;;;;;1865106;29;7100;-65
2024/04/08 03:22:53;;;;;;;;;;;;;;;;;;1865672;29;7010;-65
2024/04/08 03:23:49;;;;;;;;;;;;;;;;;;1864702;29;7021;-65
2024/04/08 03:24:45;;;;;;;;;;;;;;;;;;1865343;29;7050;-65
2024/04/08 03:25:42;;;;;;;;;;;;;;;;;;1865391;29;7030;-65
2024/04/08 03:26:38;;;;;;;;;;;;;;;;;;1867760;28;7129;-65
2024/04/08 03:27:34;;;;;;;;;;;;;;;;;;1878305;28;7126;-65
2024/04/08 03:28:31;;;;;;;;;;;;;;;;;;1871268;28;7346;-65
2024/04/08 03:29:27;;;;;;;;;;;;;;;;;;1863219;29;8011;-65
2024/04/08 03:30:24;;;;;;;;;;;;;;;;;;1863865;29;7009;-64
2024/04/08 03:31:20;;;;;;;;;;;;;;;;;;1868517;28;7021;-65
2024/04/08 03:32:16;;;;;;;;;;;;;;;;;;1866288;29;7009;-65
2024/04/08 03:33:13;;;;;;;;;;;;;;;;;;1871474;28;7013;-65
2024/04/08 03:34:09;;;;;;;;;;;;;;;;;;1871494;28;8104;-65
2024/04/08 03:35:06;;;;;;;;;;;;;;;;;;1873354;28;7420;-64
2024/04/08 03:36:08;;;;;;;;;;;;;;;;;;1878866;28;7005;-64
2024/04/08 03:37:04;;;;;;;;;;;;;;;;;;1870345;28;7017;-64
2024/04/08 03:38:00;;;;;;;;;;;;;;;;;;1873301;28;7143;-65
2024/04/08 03:38:57;;;;;;;;;;;;;;;;;;1880690;28;7141;-64
2024/04/08 03:39:53;;;;;;;;;;;;;;;;;;1873801;28;7013;-65
2024/04/08 03:41:04;;;;;;;;;;;;;;;;;;1867424;29;7013;-64
2024/04/08 03:42:00;;;;;;;;;;;;;;;;;;1860458;29;7096;-65
2024/04/08 03:42:57;;;;;;;;;;;;;;;;;;1861982;29;7382;-64
2024/04/08 03:43:53;;;;;;;;;;;;;;;;;;1871723;29;7010;-65
2024/04/08 03:44:50;;;;;;;;;;;;;;;;;;1873200;29;7152;-64
2024/04/08 03:45:49;;;;;;;;;;;;;;;;;;1872421;29;7096;-64
2024/04/08 03:46:45;;;;;;;;;;;;;;;;;;1879049;28;7014;-65
2024/04/08 03:47:42;;;;;;;;;;;;;;;;;;1865201;29;7021;-64
2024/04/08 03:48:38;;;;;;;;;;;;;;;;;;1863761;29;7013;-64
2024/04/08 03:49:34;;;;;;;;;;;;;;;;;;1861108;29;7100;-64
2024/04/08 03:50:31;;;;;;;;;;;;;;;;;;1857528;29;7124;-65
2024/04/08 03:51:28;;;;;;;;;;;;;;;;;;1857706;29;7115;-65
2024/04/08 03:52:24;;;;;;;;;;;;;;;;;;1866571;29;7101;-64
2024/04/08 03:53:21;;;;;;;;;;;;;;;;;;1869583;29;7383;-64
2024/04/08 03:54:17;;;;;;;;;;;;;;;;;;1864303;29;7013;-64
2024/04/08 03:55:14;;;;;;;;;;;;;;;;;;1861739;29;7050;-64
2024/04/08 03:56:11;;;;;;;;;;;;;;;;;;1866289;29;7134;-64
2024/04/08 03:57:07;;;;;;;;;;;;;;;;;;1866326;29;7157;-65
2024/04/08 03:58:04;;;;;;;;;;;;;;;;;;1872062;29;7013;-65
2024/04/08 03:59:00;;;;;;;;;;;;;;;;;;1872607;29;7181;-64
2024/04/08 03:59:57;;;;;;;;;;;;;;;;;;1866019;29;7395;-65
2024/04/08 04:00:53;;;;;;;;;;;;;;;;;;1866000;29;7046;-64
2024/04/08 04:01:49;;;;;;;;;;;;;;;;;;1864723;29;7420;-65
2024/04/08 04:02:46;;;;;;;;;;;;;;;;;;1863814;29;7013;-64
2024/04/08 04:03:42;;;;;;;;;;;;;;;;;;1870268;29;7038;-65
2024/04/08 04:04:38;;;;;;;;;;;;;;;;;;1868995;29;7385;-65
2024/04/08 04:05:35;;;;;;;;;;;;;;;;;;1873363;29;7014;-64
2024/04/08 04:06:31;;;;;;;;;;;;;;;;;;1870472;29;7124;-65
2024/04/08 04:07:27;;;;;;;;;;;;;;;;;;1866939;29;7104;-65
2024/04/08 04:08:24;;;;;;;;;;;;;;;;;;1870261;29;7085;-64
2024/04/08 04:09:20;;;;;;;;;;;;;;;;;;1872656;29;8054;-65
2024/04/08 04:10:18;;;;;;;;;;;;;;;;;;1874096;29;7097;-65
2024/04/08 04:11:14;;;;;;;;;;;;;;;;;;1873492;29;7104;-64
2024/04/08 04:12:11;;;;;;;;;;;;;;;;;;1866738;29;7010;-64
2024/04/08 04:13:07;;;;;;;;;;;;;;;;;;1872695;29;7100;-64
2024/04/08 04:14:04;;;;;;;;;;;;;;;;;;1872408;29;7187;-65
2024/04/08 04:15:01;;;;;;;;;;;;;;;;;;1866916;29;7017;-64
2024/04/08 04:15:58;;;;;;;;;;;;;;;;;;1865744;29;7152;-65
2024/04/08 04:16:54;;;;;;;;;;;;;;;;;;1862121;29;7096;-65
2024/04/08 04:17:50;;;;;;;;;;;;;;;;;;1856487;29;7050;-64
2024/04/08 04:19:56;;;;;;;;;;;;;;;;;;2053338;26;6837;-66
2024/04/08 04:20:54;;;;;;;;;;;;;;;;;;2040818;26;7004;-66
2024/04/08 04:21:51;;;;;;;;;;;;;;;;;;2040247;26;7629;-66
2024/04/08 04:22:49;;;;;;;;;;;;;;;;;;2040892;26;7180;-66
2024/04/08 04:23:46;;;;;;;;;;;;;;;;;;2040794;26;8018;-65
2024/04/08 04:24:43;;;;;;;;;;;;;;;;;;2040743;26;7169;-66
2024/04/08 04:25:41;;;;;;;;;;;;;;;;;;2040676;26;7274;-65
2024/04/08 04:26:39;;;;;;;;;;;;;;;;;;2040711;26;7000;-65
2024/04/08 04:27:36;;;;;;;;;;;;;;;;;;2038869;26;7000;-65
2024/04/08 04:28:34;;;;;;;;;;;;;;;;;;2040845;26;7003;-65
2024/04/08 04:29:31;;;;;;;;;;;;;;;;;;2040790;26;7181;-65
2024/04/08 04:30:29;;;;;;;;;;;;;;;;;;2040670;26;7158;-66
2024/04/08 04:31:40;;;;;;;;;;;;;;;;;;2040062;26;7318;-65
2024/04/08 04:32:40;;;;;;;;;;;;;;;;;;2038969;26;7192;-66
2024/04/08 04:33:37;;;;;;;;;;;;;;;;;;2040332;26;8441;-66
2024/04/08 04:34:35;;;;;;;;;;;;;;;;;;2040650;26;7004;-65
2024/04/08 04:35:32;;;;;;;;;;;;;;;;;;2038248;26;7065;-65
2024/04/08 04:36:30;;;;;;;;;;;;;;;;;;2038375;26;7004;-66
2024/04/08 04:37:27;;;;;;;;;;;;;;;;;;2040604;26;7434;-66
2024/04/08 04:38:26;;;;;;;;;;;;;;;;;;2040796;26;7314;-66
2024/04/08 04:39:23;;;;;;;;;;;;;;;;;;2041080;26;7069;-66
2024/04/08 04:40:20;;;;;;;;;;;;;;;;;;2037896;26;8066;-66
2024/04/08 04:41:20;;;;;;;;;;;;;;;;;;2040140;26;7072;-66
2024/04/08 04:42:17;;;;;;;;;;;;;;;;;;2039752;26;7172;-66
2024/04/08 04:43:15;;;;;;;;;;;;;;;;;;2040546;26;7004;-65
2024/04/08 04:44:12;;;;;;;;;;;;;;;;;;2040099;26;8238;-66
2024/04/08 04:45:10;;;;;;;;;;;;;;;;;;2041090;26;7189;-66
2024/04/08 04:46:07;;;;;;;;;;;;;;;;;;2040484;26;7004;-66
2024/04/08 04:47:05;;;;;;;;;;;;;;;;;;2040464;26;7124;-66
2024/04/08 04:48:02;;;;;;;;;;;;;;;;;;2040380;26;7004;-66
2024/04/08 04:49:00;;;;;;;;;;;;;;;;;;2036966;26;7061;-66
2024/04/08 04:49:58;;;;;;;;;;;;;;;;;;2040014;26;7004;-66
2024/04/08 04:50:55;;;;;;;;;;;;;;;;;;2039959;26;7187;-67
2024/04/08 04:51:53;;;;;;;;;;;;;;;;;;2040585;26;7005;-65
2024/04/08 04:52:50;;;;;;;;;;;;;;;;;;2040402;26;7173;-66
2024/04/08 04:53:48;;;;;;;;;;;;;;;;;;2037573;26;7201;-66
2024/04/08 04:54:45;;;;;;;;;;;;;;;;;;2040288;26;7181;-66
2024/04/08 04:55:51;;;;;;;;;;;;;;;;;;2040063;26;7004;-67
2024/04/08 04:56:48;;;;;;;;;;;;;;;;;;2039647;26;8002;-66
2024/04/08 04:57:46;;;;;;;;;;;;;;;;;;2039098;26;7004;-66
2024/04/08 04:58:43;;;;;;;;;;;;;;;;;;2038220;26;7045;-66
2024/04/08 04:59:41;;;;;;;;;;;;;;;;;;2040991;26;7070;-66
2024/04/08 05:00:38;;;;;;;;;;;;;;;;;;2038799;26;7169;-66
2024/04/08 05:01:36;;;;;;;;;;;;;;;;;;2039380;26;8083;-66
2024/04/08 05:02:34;;;;;;;;;;;;;;;;;;2038477;26;7008;-66
2024/04/08 05:03:31;;;;;;;;;;;;;;;;;;2040133;26;7066;-66
2024/04/08 05:04:29;;;;;;;;;;;;;;;;;;2040645;26;7011;-66
2024/04/08 05:05:26;;;;;;;;;;;;;;;;;;2037684;26;8048;-66
2024/04/08 05:06:24;;;;;;;;;;;;;;;;;;2040521;26;7074;-66
2024/04/08 05:07:21;;;;;;;;;;;;;;;;;;2040253;26;7004;-66
2024/04/08 05:08:18;;;;;;;;;;;;;;;;;;2039749;26;8234;-66
2024/04/08 05:09:16;;;;;;;;;;;;;;;;;;2040459;26;7004;-66
2024/04/08 05:10:13;;;;;;;;;;;;;;;;;;2039895;26;7123;-65
2024/04/08 05:11:14;;;;;;;;;;;;;;;;;;2040167;26;7012;-66
2024/04/08 05:12:11;;;;;;;;;;;;;;;;;;2039734;26;7004;-65
2024/04/08 05:13:09;;;;;;;;;;;;;;;;;;2040353;26;8069;-65
2024/04/08 05:14:07;;;;;;;;;;;;;;;;;;2040892;26;7418;-66
2024/04/08 05:15:04;;;;;;;;;;;;;;;;;;2037975;26;7067;-65
2024/04/08 05:16:02;;;;;;;;;;;;;;;;;;2039513;26;7126;-66
2024/04/08 05:17:00;;;;;;;;;;;;;;;;;;2040407;26;7417;-66
2024/04/08 05:17:57;;;;;;;;;;;;;;;;;;2039662;26;7974;-65
2024/04/08 05:18:55;;;;;;;;;;;;;;;;;;2040360;26;7065;-65
2024/04/08 05:19:52;;;;;;;;;;;;;;;;;;2039543;26;7185;-65
2024/04/08 05:20:51;;;;;;;;;;;;;;;;;;2040107;26;8070;-65
2024/04/08 05:21:48;;;;;;;;;;;;;;;;;;2039264;26;8518;-65
2024/04/08 05:22:47;;;;;;;;;;;;;;;;;;2038569;26;7004;-66
2024/04/08 05:23:45;;;;;;;;;;;;;;;;;;2040294;26;7004;-64
2024/04/08 05:24:43;;;;;;;;;;;;;;;;;;2040103;26;7007;-64
2024/04/08 05:25:40;;;;;;;;;;;;;;;;;;2040436;26;7184;-63
2024/04/08 05:26:38;;;;;;;;;;;;;;;;;;2040060;26;7004;-64
2024/04/08 05:27:35;;;;;;;;;;;;;;;;;;2040777;26;8285;-63
2024/04/08 05:28:33;;;;;;;;;;;;;;;;;;2040577;26;7004;-63
2024/04/08 05:29:31;;;;;;;;;;;;;;;;;;2040037;26;8072;-63
2024/04/08 05:30:32;;;;;;;;;;;;;;;;;;2038839;26;8447;-64
2024/04/08 05:31:30;;;;;;;;;;;;;;;;;;2031523;26;8387;-64
2024/04/08 05:32:27;;;;;;;;;;;;;;;;;;2034210;26;7169;-64
2024/04/08 05:33:25;;;;;;;;;;;;;;;;;;2034312;26;7136;-64
2024/04/08 05:34:22;;;;;;;;;;;;;;;;;;2034776;26;7412;-63
2024/04/08 05:35:20;;;;;;;;;;;;;;;;;;2034755;26;7004;-64
2024/04/08 05:36:17;;;;;;;;;;;;;;;;;;2034451;26;7353;-64
2024/04/08 05:37:14;;;;;;;;;;;;;;;;;;2031760;26;8084;-64
2024/04/08 05:38:12;;;;;;;;;;;;;;;;;;2034628;26;8068;-64
2024/04/08 05:39:10;;;;;;;;;;;;;;;;;;2034838;26;7004;-63
2024/04/08 05:40:11;;;;;;;;;;;;;;;;;;2034054;26;7000;-63
2024/04/08 05:41:09;;;;;;;;;;;;;;;;;;2034538;26;7004;-63
2024/04/08 05:42:06;;;;;;;;;;;;;;;;;;2035033;26;8386;-63
2024/04/08 05:43:04;;;;;;;;;;;;;;;;;;2034630;26;7005;-64
2024/04/08 05:44:02;;;;;;;;;;;;;;;;;;2034703;26;7404;-63
2024/04/08 05:44:59;;;;;;;;;;;;;;;;;;2034081;26;7004;-63
2024/04/08 05:45:57;;;;;;;;;;;;;;;;;;2032936;26;7004;-64
2024/04/08 05:46:55;;;;;;;;;;;;;;;;;;2033908;26;8091;-63
2024/04/08 05:47:55;;;;;;;;;;;;;;;;;;2034209;26;7137;-64
2024/04/08 05:48:52;;;;;;;;;;;;;;;;;;2034634;26;8153;-64
2024/04/08 05:49:50;;;;;;;;;;;;;;;;;;2035152;26;7066;-63
2024/04/08 05:50:48;;;;;;;;;;;;;;;;;;2034862;26;7004;-63
2024/04/08 05:51:45;;;;;;;;;;;;;;;;;;2034231;26;7004;-64
2024/04/08 05:52:43;;;;;;;;;;;;;;;;;;2034449;26;7004;-63
2024/04/08 05:53:40;;;;;;;;;;;;;;;;;;2032727;26;7196;-63
2024/04/08 05:54:38;;;;;;;;;;;;;;;;;;2034524;26;7204;-63
2024/04/08 05:55:35;;;;;;;;;;;;;;;;;;2034401;26;7004;-63
2024/04/08 05:56:33;;;;;;;;;;;;;;;;;;2035092;26;7008;-64
2024/04/08 05:57:30;;;;;;;;;;;;;;;;;;2033805;26;7004;-63
2024/04/08 05:58:28;;;;;;;;;;;;;;;;;;2032592;26;7011;-63
2024/04/08 05:59:26;;;;;;;;;;;;;;;;;;2034174;26;7595;-64
2024/04/08 06:00:24;;;;;;;;;;;;;;;;;;2034351;26;7004;-63
2024/04/08 06:01:21;;;;;;;;;;;;;;;;;;2034123;26;7008;-64
2024/04/08 06:02:19;;;;;;;;;;;;;;;;;;2034377;26;7190;-63
2024/04/08 06:03:17;;;;;;;;;;;;;;;;;;2034801;26;7004;-64
2024/04/08 06:04:14;;;;;;;;;;;;;;;;;;2034415;26;8212;-63
2024/04/08 06:05:11;;;;;;;;;;;;;;;;;;2034113;26;7004;-63
2024/04/08 06:06:16;;;;;;;;;;;;;;;;;;2034281;26;8303;-63
2024/04/08 06:07:13;;;;;;;;;;;;;;;;;;2034678;26;7007;-64
2024/04/08 06:08:11;;;;;;;;;;;;;;;;;;2034231;26;7004;-63
2024/04/08 06:09:08;;;;;;;;;;;;;;;;;;2034961;26;7000;-63
2024/04/08 06:10:06;;;;;;;;;;;;;;;;;;2034659;26;8126;-64
2024/04/08 06:11:03;;;;;;;;;;;;;;;;;;2034848;26;8073;-63
2024/04/08 06:12:01;;;;;;;;;;;;;;;;;;2033368;26;7196;-64
2024/04/08 06:12:59;;;;;;;;;;;;;;;;;;2034072;26;8252;-63
2024/04/08 06:13:57;;;;;;;;;;;;;;;;;;2033813;26;7064;-64
2024/04/08 06:14:54;;;;;;;;;;;;;;;;;;2034181;26;7004;-63
2024/04/08 06:15:52;;;;;;;;;;;;;;;;;;2034839;26;7004;-64
2024/04/08 06:16:49;;;;;;;;;;;;;;;;;;2034768;26;8460;-64
2024/04/08 06:17:47;;;;;;;;;;;;;;;;;;2035294;26;7133;-64
2024/04/08 06:18:46;;;;;;;;;;;;;;;;;;2034279;26;7358;-64
2024/04/08 06:19:43;;;;;;;;;;;;;;;;;;2033996;26;7167;-63
2024/04/08 06:20:42;;;;;;;;;;;;;;;;;;2034433;26;7011;-63
2024/04/08 06:21:40;;;;;;;;;;;;;;;;;;2034073;26;7093;-64
2024/04/08 06:22:37;;;;;;;;;;;;;;;;;;2018078;26;7973;-64
2024/04/08 06:23:35;;;;;;;;;;;;;;;;;;2019716;26;7005;-64
2024/04/08 06:24:32;;;;;;;;;;;;;;;;;;2032854;26;7012;-63
2024/04/08 06:25:30;;;;;;;;;;;;;;;;;;2035261;26;7011;-63
2024/04/08 06:26:29;;;;;;;;;;;;;;;;;;2032258;26;9061;-64
2024/04/08 06:27:27;;;;;;;;;;;;;;;;;;2034069;26;8086;-63
2024/04/08 06:28:24;;;;;;;;;;;;;;;;;;2034694;26;7167;-64
2024/04/08 06:29:22;;;;;;;;;;;;;;;;;;2034233;26;7065;-63
2024/04/08 06:30:19;;;;;;;;;;;;;;;;;;2032204;26;7122;-63
2024/04/08 06:31:17;;;;;;;;;;;;;;;;;;2034834;26;7004;-63
2024/04/08 06:32:14;;;;;;;;;;;;;;;;;;2035205;26;7066;-64
2024/04/08 06:33:12;;;;;;;;;;;;;;;;;;2034390;26;7144;-63
2024/04/08 06:34:10;;;;;;;;;;;;;;;;;;2034595;26;7939;-63
2024/04/08 06:35:07;;;;;;;;;;;;;;;;;;2033997;26;7023;-63
2024/04/08 06:36:05;;;;;;;;;;;;;;;;;;2034412;26;7066;-63
2024/04/08 06:37:02;;;;;;;;;;;;;;;;;;2033096;26;7487;-63